createdAt,value
2022-10-18T00:00:56.870Z,16.36
2022-10-18T00:03:23.936Z,16.38
2022-10-18T00:05:51.782Z,16.43
2022-10-18T00:08:20.263Z,16.43
2022-10-18T00:10:48.087Z,16.36
2022-10-18T00:13:15.251Z,16.30
2022-10-18T00:15:53.487Z,16.32
2022-10-18T00:18:21.444Z,16.25
2022-10-18T00:21:04.285Z,16.25
2022-10-18T00:23:32.531Z,16.33
2022-10-18T00:26:06.188Z,16.34
2022-10-18T00:28:35.358Z,16.37
2022-10-18T00:31:19.301Z,16.37
2022-10-18T00:33:51.352Z,16.38
2022-10-18T00:36:19.439Z,16.41
2022-10-18T00:38:47.739Z,16.37
2022-10-18T00:41:28.613Z,16.35
2022-10-18T00:44:27.826Z,16.39
2022-10-18T00:47:02.429Z,16.35
2022-10-18T00:49:44.919Z,16.41
2022-10-18T00:52:42.250Z,16.34
2022-10-18T00:55:10.411Z,16.40
2022-10-18T00:57:40.670Z,16.39
2022-10-18T01:00:10.181Z,16.42
2022-10-18T01:02:40.181Z,16.36
2022-10-18T01:05:08.160Z,16.41
2022-10-18T01:08:08.320Z,16.44
2022-10-18T01:10:54.955Z,16.34
2022-10-18T01:13:48.176Z,16.36
2022-10-18T01:16:42.847Z,16.34
2022-10-18T01:19:39.565Z,16.31
2022-10-18T01:22:23.568Z,16.30
2022-10-18T01:27:35.480Z,16.24
2022-10-18T01:30:45.645Z,16.18
2022-10-18T01:33:38.671Z,16.11
2022-10-18T01:36:25.654Z,16.14
2022-10-18T01:38:57.077Z,16.13
2022-10-18T01:41:26.640Z,16.13
2022-10-18T01:43:59.694Z,16.14
2022-10-18T01:46:28.290Z,16.26
2022-10-18T01:48:56.887Z,16.27
2022-10-18T01:51:31.022Z,16.24
2022-10-18T01:53:58.840Z,16.15
2022-10-18T01:56:28.258Z,16.12
2022-10-18T01:59:51.282Z,16.15
2022-10-18T02:02:53.841Z,16.19
2022-10-18T02:05:40.178Z,16.22
2022-10-18T02:08:28.376Z,16.30
2022-10-18T02:11:12.933Z,16.29
2022-10-18T02:14:14.935Z,16.32
2022-10-18T02:16:50.491Z,16.26
2022-10-18T02:19:35.973Z,16.25
2022-10-18T02:22:04.381Z,16.30
2022-10-18T02:24:41.481Z,16.33
2022-10-18T02:27:09.648Z,16.30
2022-10-18T02:29:38.718Z,16.28
2022-10-18T02:33:03.713Z,16.30
2022-10-18T02:35:37.719Z,16.26
2022-10-18T02:38:07.560Z,16.23
2022-10-18T02:40:34.608Z,16.27
2022-10-18T02:43:01.679Z,16.27
2022-10-18T02:45:28.879Z,16.27
2022-10-18T02:47:55.924Z,16.26
2022-10-18T02:50:22.989Z,16.28
2022-10-18T02:52:50.067Z,16.26
2022-10-18T02:55:18.086Z,16.25
2022-10-18T02:57:45.135Z,16.26
2022-10-18T03:00:13.020Z,16.26
2022-10-18T03:02:40.046Z,16.25
2022-10-18T03:05:07.332Z,16.20
2022-10-18T03:07:34.585Z,16.19
2022-10-18T03:10:01.973Z,16.18
2022-10-18T03:12:29.055Z,16.15
2022-10-18T03:14:56.097Z,16.15
2022-10-18T03:17:23.202Z,16.15
2022-10-18T03:19:50.229Z,16.13
2022-10-18T03:22:17.258Z,16.11
2022-10-18T03:24:45.521Z,16.08
2022-10-18T03:27:12.642Z,16.07
2022-10-18T03:29:40.599Z,16.06
2022-10-18T03:32:07.930Z,15.99
2022-10-18T03:34:34.987Z,16.02
2022-10-18T03:37:04.736Z,16.01
2022-10-18T03:39:32.501Z,15.96
2022-10-18T03:41:59.459Z,15.91
2022-10-18T03:44:26.450Z,15.98
2022-10-18T03:46:53.438Z,15.98
2022-10-18T03:49:20.604Z,15.96
2022-10-18T03:51:47.603Z,15.95
2022-10-18T03:54:14.544Z,15.96
2022-10-18T03:56:41.507Z,15.96
2022-10-18T03:59:08.595Z,15.94
2022-10-18T04:01:35.615Z,15.95
2022-10-18T04:04:02.602Z,15.94
2022-10-18T04:06:29.575Z,15.98
2022-10-18T04:08:56.632Z,15.97
2022-10-18T04:11:23.939Z,15.90
2022-10-18T04:13:51.178Z,15.89
2022-10-18T04:16:18.157Z,15.84
2022-10-18T04:18:45.151Z,15.87
2022-10-18T04:21:12.226Z,15.84
2022-10-18T04:23:39.237Z,15.86
2022-10-18T04:26:06.919Z,15.83
2022-10-18T04:28:35.604Z,15.79
2022-10-18T04:31:02.634Z,15.81
2022-10-18T04:33:29.575Z,15.84
2022-10-18T04:35:57.081Z,15.87
2022-10-18T04:38:25.524Z,15.88
2022-10-18T04:40:52.608Z,15.85
2022-10-18T04:43:19.753Z,15.78
2022-10-18T04:45:48.155Z,15.74
2022-10-18T04:48:15.451Z,15.74
2022-10-18T04:50:42.528Z,15.73
2022-10-18T04:53:09.773Z,15.73
2022-10-18T04:55:36.789Z,15.71
2022-10-18T04:58:03.820Z,15.65
2022-10-18T05:00:30.768Z,15.58
2022-10-18T05:02:58.455Z,15.59
2022-10-18T05:05:43.247Z,15.58
2022-10-18T05:08:13.540Z,15.55
2022-10-18T05:10:40.492Z,15.51
2022-10-18T05:13:07.547Z,15.47
2022-10-18T05:15:34.550Z,15.41
2022-10-18T05:18:01.518Z,15.36
2022-10-18T05:20:28.609Z,15.34
2022-10-18T05:22:55.597Z,15.33
2022-10-18T05:25:22.601Z,15.29
2022-10-18T05:27:49.633Z,15.29
2022-10-18T05:30:16.775Z,15.35
2022-10-18T05:32:43.706Z,15.34
2022-10-18T05:35:10.694Z,15.28
2022-10-18T05:37:37.660Z,15.23
2022-10-18T05:40:05.291Z,15.21
2022-10-18T05:42:32.420Z,15.19
2022-10-18T05:44:59.642Z,15.12
2022-10-18T05:47:26.671Z,17.14
2022-10-18T05:49:53.781Z,17.93
2022-10-18T05:52:20.774Z,18.44
2022-10-18T05:54:47.695Z,18.79
2022-10-18T05:57:14.957Z,19.05
2022-10-18T05:59:41.988Z,19.24
2022-10-18T06:02:11.592Z,19.41
2022-10-18T06:04:38.619Z,19.56
2022-10-18T06:07:11.994Z,19.65
2022-10-18T06:09:39.132Z,19.73
2022-10-18T06:12:06.247Z,19.80
2022-10-18T06:14:33.484Z,19.85
2022-10-18T06:17:00.436Z,19.87
2022-10-18T06:19:27.507Z,19.90
2022-10-18T06:21:54.550Z,19.91
2022-10-18T06:24:21.744Z,19.93
2022-10-18T06:26:49.460Z,19.94
2022-10-18T06:29:17.538Z,19.96
2022-10-18T06:31:44.469Z,19.96
2022-10-18T06:34:11.603Z,19.98
2022-10-18T06:36:38.705Z,19.99
2022-10-18T06:39:05.746Z,20.01
2022-10-18T06:41:32.768Z,20.01
2022-10-18T06:44:03.436Z,20.00
2022-10-18T06:46:30.391Z,20.02
2022-10-18T06:48:57.691Z,20.03
2022-10-18T06:51:24.744Z,20.05
2022-10-18T06:54:12.967Z,20.05
2022-10-18T06:56:39.240Z,20.06
2022-10-18T06:59:06.406Z,20.08
2022-10-18T07:01:33.494Z,20.06
2022-10-18T07:04:00.584Z,20.07
2022-10-18T07:06:27.663Z,20.07
2022-10-18T07:08:54.789Z,20.09
2022-10-18T07:11:25.334Z,20.09
2022-10-18T07:14:00.925Z,20.09
2022-10-18T07:16:27.913Z,20.07
2022-10-18T07:18:54.954Z,20.09
2022-10-18T07:21:25.058Z,20.10
2022-10-18T07:23:53.221Z,20.12
2022-10-18T07:26:25.643Z,20.13
2022-10-18T07:28:57.999Z,20.14
2022-10-18T07:31:25.680Z,20.16
2022-10-18T07:33:53.229Z,20.15
2022-10-18T07:36:22.140Z,20.17
2022-10-18T07:38:49.917Z,20.18
2022-10-18T07:41:16.934Z,20.18
2022-10-18T07:43:48.447Z,20.18
2022-10-18T07:46:16.970Z,20.19
2022-10-18T07:48:44.273Z,20.20
2022-10-18T07:51:11.903Z,20.18
2022-10-18T07:53:39.038Z,20.17
2022-10-18T07:56:11.906Z,20.17
2022-10-18T07:58:39.160Z,20.11
2022-10-18T08:01:08.663Z,20.10
2022-10-18T08:03:37.308Z,19.93
2022-10-18T08:06:06.145Z,19.96
2022-10-18T08:08:33.144Z,20.00
2022-10-18T08:11:06.691Z,19.83
2022-10-18T08:13:33.803Z,19.93
2022-10-18T08:16:10.127Z,20.11
2022-10-18T08:18:38.276Z,20.21
2022-10-18T08:21:09.710Z,20.18
2022-10-18T08:23:37.413Z,20.24
2022-10-18T08:26:08.210Z,20.25
2022-10-18T08:28:38.103Z,20.23
2022-10-18T08:31:13.799Z,20.23
2022-10-18T08:33:40.894Z,20.20
2022-10-18T08:36:10.884Z,20.20
2022-10-18T08:38:40.356Z,20.20
2022-10-18T08:41:36.683Z,20.16
2022-10-18T08:44:20.862Z,20.24
2022-10-18T08:46:56.310Z,20.24
2022-10-18T08:49:44.233Z,20.26
2022-10-18T08:52:43.430Z,20.24
2022-10-18T08:55:26.477Z,20.23
2022-10-18T08:57:53.680Z,20.25
2022-10-18T09:00:28.978Z,20.25
2022-10-18T09:03:39.394Z,20.26
2022-10-18T09:06:39.402Z,20.28
2022-10-18T09:09:34.551Z,20.29
2022-10-18T09:12:49.206Z,20.29
2022-10-18T09:15:44.200Z,20.29
2022-10-18T09:18:42.121Z,20.30
2022-10-18T09:21:22.798Z,20.31
2022-10-18T09:24:07.404Z,20.31
2022-10-18T09:26:46.683Z,20.29
2022-10-18T09:29:37.889Z,20.30
2022-10-18T09:32:31.742Z,20.31
2022-10-18T09:35:20.436Z,20.33
2022-10-18T09:37:49.633Z,20.34
2022-10-18T09:40:30.625Z,20.35
2022-10-18T09:43:11.881Z,20.35
2022-10-18T09:45:45.708Z,20.36
2022-10-18T09:49:00.313Z,20.37
2022-10-18T09:51:36.240Z,20.39
2022-10-18T09:54:19.273Z,20.39
2022-10-18T09:56:57.574Z,20.38
2022-10-18T09:59:42.072Z,20.39
2022-10-18T10:02:18.494Z,20.39
2022-10-18T10:04:45.691Z,20.42
2022-10-18T10:07:32.575Z,20.42
2022-10-18T10:10:23.812Z,20.42
2022-10-18T10:13:23.117Z,20.42
2022-10-18T10:16:03.768Z,20.43
2022-10-18T10:18:40.628Z,20.46
2022-10-18T10:21:16.049Z,20.46
2022-10-18T10:23:53.823Z,20.47
2022-10-18T10:26:33.431Z,20.48
2022-10-18T10:29:00.999Z,20.48
2022-10-18T10:31:33.296Z,20.49
2022-10-18T10:34:12.693Z,20.50
2022-10-18T10:36:54.531Z,20.52
2022-10-18T10:39:24.615Z,20.53
2022-10-18T10:42:00.798Z,20.53
2022-10-18T10:44:36.573Z,20.54
2022-10-18T10:47:04.092Z,20.54
2022-10-18T10:49:47.630Z,20.55
2022-10-18T10:52:29.056Z,20.54
2022-10-18T10:57:49.065Z,20.56
2022-10-18T11:00:45.622Z,20.56
2022-10-18T11:03:28.459Z,20.58
2022-10-18T11:06:00.417Z,20.58
2022-10-18T11:08:35.922Z,20.57
2022-10-18T11:11:22.134Z,20.58
2022-10-18T11:14:13.678Z,20.59
2022-10-18T11:16:55.184Z,20.59
2022-10-18T11:20:01.852Z,20.59
2022-10-18T11:22:44.231Z,20.61
2022-10-18T11:25:16.692Z,20.62
2022-10-18T11:28:00.394Z,20.63
2022-10-18T11:30:55.396Z,20.63
2022-10-18T11:34:07.714Z,20.64
2022-10-18T11:36:56.029Z,20.64
2022-10-18T11:39:46.696Z,20.65
2022-10-18T11:42:31.052Z,20.65
2022-10-18T11:45:15.034Z,20.66
2022-10-18T11:48:13.047Z,20.66
2022-10-18T11:51:33.923Z,20.66
2022-10-18T11:54:33.822Z,20.66
2022-10-18T11:57:13.072Z,20.68
2022-10-18T12:00:01.767Z,20.70
2022-10-18T12:03:06.210Z,20.70
2022-10-18T12:05:38.463Z,20.72
2022-10-18T12:08:39.791Z,20.73
2022-10-18T12:11:16.705Z,20.73
2022-10-18T12:14:00.832Z,20.75
2022-10-18T12:16:51.337Z,20.75
2022-10-18T12:19:29.748Z,20.77
2022-10-18T12:22:05.848Z,20.78
2022-10-18T12:24:34.394Z,20.79
2022-10-18T12:27:02.518Z,20.80
2022-10-18T12:29:35.859Z,20.80
2022-10-18T12:32:11.189Z,20.82
2022-10-18T12:34:58.934Z,20.81
2022-10-18T12:37:44.513Z,20.82
2022-10-18T12:40:38.520Z,20.82
2022-10-18T12:43:36.467Z,20.84
2022-10-18T12:46:13.112Z,20.82
2022-10-18T12:48:48.795Z,20.82
2022-10-18T12:51:19.955Z,20.86
2022-10-18T12:54:17.066Z,20.89
2022-10-18T12:56:46.759Z,20.94
2022-10-18T12:59:16.379Z,20.96
2022-10-18T13:01:54.980Z,20.94
2022-10-18T13:04:28.023Z,20.93
2022-10-18T13:07:00.520Z,20.94
2022-10-18T13:09:35.387Z,20.96
2022-10-18T13:12:10.735Z,20.97
2022-10-18T13:15:12.781Z,20.94
2022-10-18T13:18:03.213Z,20.92
2022-10-18T13:20:46.244Z,20.94
2022-10-18T13:23:33.884Z,20.96
2022-10-18T13:26:18.842Z,20.97
2022-10-18T13:29:24.267Z,20.96
2022-10-18T13:32:27.668Z,21.02
2022-10-18T13:34:54.947Z,21.00
2022-10-18T13:37:25.659Z,20.97
2022-10-18T13:40:30.298Z,21.01
2022-10-18T13:42:57.236Z,21.09
2022-10-18T13:45:33.112Z,21.12
2022-10-18T13:48:27.497Z,21.08
2022-10-18T13:51:06.901Z,21.10
2022-10-18T13:54:12.912Z,20.98
2022-10-18T13:57:37.512Z,21.10
2022-10-18T14:00:49.113Z,21.14
2022-10-18T14:03:58.127Z,21.16
2022-10-18T14:06:42.490Z,21.27
2022-10-18T14:09:40.217Z,21.22
2022-10-18T14:12:46.088Z,21.17
2022-10-18T14:15:26.245Z,21.15
2022-10-18T14:18:20.008Z,21.12
2022-10-18T14:21:12.188Z,21.11
2022-10-18T14:23:45.048Z,21.10
2022-10-18T14:26:22.654Z,21.16
2022-10-18T14:29:17.317Z,21.12
2022-10-18T14:31:54.200Z,21.12
2022-10-18T14:34:21.951Z,21.09
2022-10-18T14:36:50.085Z,21.09
2022-10-18T14:39:24.262Z,21.09
2022-10-18T14:41:56.807Z,21.16
2022-10-18T14:44:34.827Z,21.13
2022-10-18T14:47:17.921Z,21.15
2022-10-18T14:49:46.862Z,21.14
2022-10-18T14:52:24.056Z,21.19
2022-10-18T14:54:55.763Z,21.19
2022-10-18T14:57:32.205Z,21.21
2022-10-18T15:00:03.365Z,21.19
2022-10-18T15:02:35.716Z,20.76
2022-10-18T15:05:22.920Z,20.65
2022-10-18T15:07:52.102Z,20.55
2022-10-18T15:10:31.489Z,20.41
2022-10-18T15:13:16.558Z,20.35
2022-10-18T15:15:44.938Z,20.29
2022-10-18T15:18:27.140Z,20.05
2022-10-18T15:21:23.145Z,20.21
2022-10-18T15:23:51.625Z,20.24
2022-10-18T15:26:29.515Z,20.20
2022-10-18T15:29:01.511Z,20.16
2022-10-18T15:31:37.705Z,20.05
2022-10-18T15:34:18.481Z,20.01
2022-10-18T15:36:46.500Z,19.99
2022-10-18T15:39:31.190Z,19.88
2022-10-18T15:42:01.683Z,19.89
2022-10-18T15:44:35.487Z,19.86
2022-10-18T15:47:20.257Z,19.72
2022-10-18T15:49:47.220Z,19.63
2022-10-18T15:52:40.753Z,19.62
2022-10-18T15:55:29.381Z,19.48
2022-10-18T15:58:39.170Z,19.22
2022-10-18T16:01:15.783Z,19.06
2022-10-18T16:03:44.437Z,19.02
2022-10-18T16:06:16.043Z,18.94
2022-10-18T16:08:49.449Z,18.89
2022-10-18T16:11:23.927Z,18.94
2022-10-18T16:13:56.447Z,18.78
2022-10-18T16:16:28.988Z,18.67
2022-10-18T16:18:57.669Z,18.62
2022-10-18T16:21:35.546Z,18.52
2022-10-18T16:24:03.670Z,18.38
2022-10-18T16:26:30.952Z,18.48
2022-10-18T16:28:59.917Z,18.39
2022-10-18T16:31:30.898Z,18.21
2022-10-18T16:33:58.973Z,18.21
2022-10-18T16:36:29.607Z,18.18
2022-10-18T16:39:01.163Z,18.01
2022-10-18T16:41:29.142Z,17.91
2022-10-18T16:43:56.172Z,17.87
2022-10-18T16:46:28.468Z,17.69
2022-10-18T16:48:56.706Z,17.82
2022-10-18T16:51:25.331Z,17.87
2022-10-18T16:53:55.571Z,17.76
2022-10-18T16:56:28.144Z,17.59
2022-10-18T16:58:55.400Z,17.53
2022-10-18T17:01:23.977Z,17.46
2022-10-18T17:03:55.376Z,17.41
2022-10-18T17:06:35.228Z,17.40
2022-10-18T17:09:02.374Z,17.26
2022-10-18T17:11:29.688Z,17.17
2022-10-18T17:13:56.920Z,17.13
2022-10-18T17:16:36.815Z,17.20
2022-10-18T17:19:10.298Z,17.09
2022-10-18T17:21:37.544Z,16.99
2022-10-18T17:24:06.180Z,16.98
2022-10-18T17:26:34.366Z,16.93
2022-10-18T17:29:08.279Z,16.86
2022-10-18T17:31:35.881Z,16.81
2022-10-18T17:34:03.357Z,16.74
2022-10-18T17:36:32.508Z,16.66
2022-10-18T17:38:59.652Z,16.63
2022-10-18T17:41:26.830Z,16.59
2022-10-18T17:43:53.871Z,16.60
2022-10-18T17:46:21.139Z,16.54
2022-10-18T17:48:48.253Z,16.45
2022-10-18T17:51:17.678Z,16.39
2022-10-18T17:53:45.119Z,16.36
2022-10-18T17:56:13.992Z,16.38
2022-10-18T17:58:43.569Z,16.33
2022-10-18T18:01:11.506Z,16.29
2022-10-18T18:03:38.883Z,16.28
2022-10-18T18:06:33.997Z,16.19
2022-10-18T18:09:16.096Z,16.08
2022-10-18T18:11:47.288Z,16.00
2022-10-18T18:14:16.086Z,15.90
2022-10-18T18:16:46.617Z,15.90
2022-10-18T18:19:14.958Z,15.87
2022-10-18T18:21:43.429Z,15.81
2022-10-18T18:24:11.980Z,15.77
2022-10-18T18:26:40.815Z,15.70
2022-10-18T18:29:08.264Z,15.61
2022-10-18T18:31:40.332Z,15.63
2022-10-18T18:34:11.288Z,15.56
2022-10-18T18:36:39.334Z,15.46
2022-10-18T18:39:09.011Z,15.40
2022-10-18T18:41:37.792Z,15.39
2022-10-18T18:44:06.223Z,15.36
2022-10-18T18:46:38.728Z,15.37
2022-10-18T18:49:07.417Z,15.29
2022-10-18T18:51:38.123Z,15.23
2022-10-18T18:54:06.628Z,15.18
2022-10-18T18:56:34.471Z,15.23
2022-10-18T18:59:02.009Z,15.22
2022-10-18T19:01:38.597Z,15.17
2022-10-18T19:04:08.063Z,15.07
2022-10-18T19:06:41.556Z,15.03
2022-10-18T19:09:18.663Z,14.96
2022-10-18T19:11:48.309Z,14.90
2022-10-18T19:14:15.791Z,14.87
2022-10-18T19:16:53.500Z,14.83
2022-10-18T19:19:25.410Z,14.78
2022-10-18T19:21:58.935Z,14.72
2022-10-18T19:24:30.351Z,14.69
2022-10-18T19:31:03.811Z,14.58
2022-10-18T19:33:41.491Z,14.56
2022-10-18T19:36:16.124Z,14.49
2022-10-18T19:38:43.420Z,14.36
2022-10-18T19:41:10.750Z,14.19
2022-10-18T19:43:38.658Z,14.09
2022-10-18T19:46:06.223Z,14.09
2022-10-18T19:48:33.475Z,14.11
2022-10-18T19:51:07.115Z,14.13
2022-10-18T19:53:36.464Z,14.12
2022-10-18T19:56:06.294Z,14.05
2022-10-18T19:58:34.003Z,13.98
2022-10-18T20:01:02.304Z,13.99
2022-10-18T20:03:30.471Z,13.95
2022-10-18T20:06:00.531Z,13.97
2022-10-18T20:08:31.174Z,13.89
2022-10-18T20:11:24.255Z,13.77
2022-10-18T20:13:52.096Z,13.82
2022-10-18T20:16:27.723Z,13.82
2022-10-18T20:19:01.866Z,13.76
2022-10-18T20:21:31.680Z,13.70
2022-10-18T20:23:58.816Z,13.80
2022-10-18T20:26:26.190Z,13.69
2022-10-18T20:28:59.687Z,13.64
2022-10-18T20:31:32.509Z,13.61
2022-10-18T20:34:03.224Z,13.57
2022-10-18T20:36:32.425Z,13.45
2022-10-18T20:39:00.001Z,13.45
2022-10-18T20:41:35.112Z,13.38
2022-10-18T20:44:07.098Z,13.34
2022-10-18T20:46:37.032Z,13.37
2022-10-18T20:49:07.344Z,13.36
2022-10-18T20:51:35.055Z,13.39
2022-10-18T20:56:34.283Z,13.35
2022-10-18T20:59:01.991Z,13.28
2022-10-18T21:01:32.301Z,13.28
2022-10-18T21:04:03.234Z,13.22
2022-10-18T21:06:33.396Z,13.21
2022-10-18T21:09:04.857Z,13.27
2022-10-18T21:11:36.967Z,13.24
2022-10-18T21:14:05.106Z,13.12
2022-10-18T21:16:35.331Z,13.17
2022-10-18T21:19:17.530Z,13.12
2022-10-18T21:21:47.501Z,13.16
2022-10-18T21:24:14.804Z,13.13
2022-10-18T21:26:41.839Z,13.09
2022-10-18T21:29:10.663Z,12.95
2022-10-18T21:31:42.222Z,13.01
2022-10-18T21:34:15.658Z,13.07
2022-10-18T21:36:44.710Z,12.95
2022-10-18T21:39:18.298Z,12.97
2022-10-18T21:41:46.253Z,12.87
2022-10-18T21:44:14.205Z,12.84
2022-10-18T21:46:45.154Z,12.77
2022-10-18T21:49:13.686Z,12.74
2022-10-18T21:51:41.423Z,12.72
2022-10-18T21:54:13.227Z,12.84
2022-10-18T21:56:40.822Z,12.71
2022-10-18T21:59:08.191Z,12.70
2022-10-18T22:01:38.379Z,12.64
2022-10-18T22:04:17.055Z,12.68
2022-10-18T22:06:44.053Z,12.75
2022-10-18T22:09:12.707Z,12.69
2022-10-18T22:11:45.628Z,12.65
2022-10-18T22:14:12.757Z,12.63
2022-10-18T22:16:39.800Z,12.58
2022-10-18T22:19:07.394Z,12.60
2022-10-18T22:21:34.873Z,12.51
2022-10-18T22:24:06.639Z,12.46
2022-10-18T22:26:40.401Z,12.39
2022-10-18T22:29:18.642Z,12.38
2022-10-18T22:31:51.870Z,12.46
2022-10-18T22:34:27.639Z,12.44
2022-10-18T22:36:55.326Z,12.37
2022-10-18T22:39:24.580Z,12.34
2022-10-18T22:41:55.857Z,12.35
2022-10-18T22:44:25.998Z,12.26
2022-10-18T22:46:53.046Z,12.20
2022-10-18T22:49:20.074Z,12.18
2022-10-18T22:51:47.120Z,12.03
2022-10-18T22:54:14.173Z,12.09
2022-10-18T22:56:41.200Z,12.00
2022-10-18T22:59:08.358Z,11.94
2022-10-18T23:01:35.943Z,11.92
2022-10-18T23:04:03.252Z,11.89
2022-10-18T23:06:35.613Z,11.92
2022-10-18T23:09:08.621Z,11.91
2022-10-18T23:11:37.135Z,12.00
2022-10-18T23:14:06.372Z,11.89
2022-10-18T23:16:33.554Z,12.02
2022-10-18T23:19:00.726Z,11.96
2022-10-18T23:21:28.784Z,11.89
2022-10-18T23:23:59.365Z,11.83
2022-10-18T23:26:28.088Z,11.71
2022-10-18T23:28:56.207Z,11.83
2022-10-18T23:31:30.235Z,11.85
2022-10-18T23:34:00.895Z,11.75
2022-10-18T23:36:28.885Z,11.92
2022-10-18T23:38:56.618Z,11.88
2022-10-18T23:41:24.197Z,11.78
2022-10-18T23:43:51.590Z,11.69
2022-10-18T23:46:19.699Z,11.66
2022-10-18T23:48:47.683Z,11.72
2022-10-18T23:51:16.295Z,11.75
2022-10-18T23:53:43.770Z,11.80
2022-10-18T23:56:14.700Z,11.79
2022-10-18T23:58:45.124Z,11.79
